createdAt,value
2023-10-22T00:00:27.713Z,99477.34
2023-10-22T00:02:54.237Z,99476.03
2023-10-22T00:05:20.714Z,99480.72
2023-10-22T00:07:48.461Z,99479.69
2023-10-22T00:10:14.930Z,99478.25
2023-10-22T00:12:41.396Z,99481.81
2023-10-22T00:15:08.599Z,99480.66
2023-10-22T00:17:35.148Z,99485.59
2023-10-22T00:20:01.653Z,99482.72
2023-10-22T00:22:28.076Z,99484.94
2023-10-22T00:24:55.867Z,99480.44
2023-10-22T00:27:22.336Z,99485.13
2023-10-22T00:29:48.854Z,99479.84
2023-10-22T00:32:15.376Z,99481.78
2023-10-22T00:34:42.057Z,99485.59
2023-10-22T00:37:08.752Z,99490.44
2023-10-22T00:39:35.222Z,99491.59
2023-10-22T00:42:03.427Z,99486.31
2023-10-22T00:44:29.968Z,99488.34
2023-10-22T00:46:57.208Z,99496.38
2023-10-22T00:49:24.460Z,99492.69
2023-10-22T00:51:51.332Z,99502.28
2023-10-22T00:54:19.518Z,99498.56
2023-10-22T00:56:46.570Z,99511.59
2023-10-22T00:59:14.625Z,99509.50
2023-10-22T01:01:41.688Z,99507.38
2023-10-22T01:04:08.258Z,99499.66
2023-10-22T01:06:36.086Z,99493.25
2023-10-22T01:09:03.001Z,99495.56
2023-10-22T01:11:29.544Z,99497.97
2023-10-22T01:13:56.200Z,99492.50
2023-10-22T01:16:24.124Z,99490.78
2023-10-22T01:18:50.674Z,99490.56
2023-10-22T01:21:17.124Z,99489.31
2023-10-22T01:23:45.013Z,99489.31
2023-10-22T01:26:11.515Z,99487.75
2023-10-22T01:28:38.002Z,99489.69
2023-10-22T01:31:04.732Z,99491.69
2023-10-22T01:33:31.295Z,99490.97
2023-10-22T01:35:57.846Z,99488.63
2023-10-22T01:38:24.383Z,99491.53
2023-10-22T01:40:52.138Z,99495.41
2023-10-22T01:43:18.585Z,99490.56
2023-10-22T01:45:45.803Z,99491.31
2023-10-22T01:48:12.339Z,99500.72
2023-10-22T01:50:38.856Z,99502.44
2023-10-22T01:53:05.327Z,99495.19
2023-10-22T01:55:31.815Z,99507.75
2023-10-22T01:57:59.596Z,99503.28
2023-10-22T02:00:27.186Z,99501.69
2023-10-22T02:02:53.942Z,99500.16
2023-10-22T02:05:20.495Z,99506.19
2023-10-22T02:07:47.011Z,99504.44
2023-10-22T02:10:13.479Z,99507.00
2023-10-22T02:12:40.144Z,99506.78
2023-10-22T02:15:09.207Z,99505.25
2023-10-22T02:17:35.801Z,99494.84
2023-10-22T02:20:02.306Z,99484.34
2023-10-22T02:22:28.775Z,99494.06
2023-10-22T02:24:55.236Z,99490.13
2023-10-22T02:27:21.673Z,99493.00
2023-10-22T02:29:48.126Z,99491.81
2023-10-22T02:32:15.901Z,99503.63
2023-10-22T02:34:42.460Z,99493.88
2023-10-22T02:37:08.897Z,99504.91
2023-10-22T02:39:35.344Z,99504.50
2023-10-22T02:42:01.847Z,99507.13
2023-10-22T02:44:28.433Z,99511.66
2023-10-22T02:46:54.875Z,99509.38
2023-10-22T02:49:22.679Z,99511.06
2023-10-22T02:51:49.249Z,99504.59
2023-10-22T02:54:15.735Z,99513.22
2023-10-22T02:56:42.236Z,99510.13
2023-10-22T02:59:08.970Z,99506.28
2023-10-22T03:01:35.425Z,99509.03
2023-10-22T03:04:01.990Z,99504.06
2023-10-22T03:06:30.008Z,99521.31
2023-10-22T03:08:56.526Z,99516.69
2023-10-22T03:11:22.974Z,99510.22
2023-10-22T03:13:51.001Z,99518.84
2023-10-22T03:16:17.755Z,99525.34
2023-10-22T03:18:45.766Z,99522.69
2023-10-22T03:21:12.435Z,99523.53
2023-10-22T03:23:41.066Z,99525.88
2023-10-22T03:26:08.000Z,99524.63
2023-10-22T03:28:34.476Z,99532.13
2023-10-22T03:31:02.762Z,99521.75
2023-10-22T03:33:29.322Z,99531.31
2023-10-22T03:35:55.857Z,99528.88
2023-10-22T03:38:22.401Z,99517.41
2023-10-22T03:40:57.304Z,99528.41
2023-10-22T03:43:23.797Z,99535.25
2023-10-22T03:45:50.275Z,99534.22
2023-10-22T03:48:16.898Z,99525.03
2023-10-22T03:50:44.429Z,99521.09
2023-10-22T03:53:10.861Z,99528.34
2023-10-22T03:55:37.367Z,99534.81
2023-10-22T03:58:05.220Z,99526.19
2023-10-22T04:00:31.733Z,99532.69
2023-10-22T04:02:58.286Z,99531.44
2023-10-22T04:05:24.899Z,99539.06
2023-10-22T04:07:51.451Z,99545.97
2023-10-22T04:10:18.124Z,99541.03
2023-10-22T04:12:44.616Z,99534.97
2023-10-22T04:15:13.351Z,99533.53
2023-10-22T04:17:39.853Z,99533.91
2023-10-22T04:20:07.795Z,99542.09
2023-10-22T04:22:35.835Z,99535.50
2023-10-22T04:25:04.708Z,99534.59
2023-10-22T04:27:31.166Z,99531.00
2023-10-22T04:29:57.688Z,99531.84
2023-10-22T04:32:25.486Z,99525.00
2023-10-22T04:34:51.957Z,99521.56
2023-10-22T04:37:18.460Z,99518.69
2023-10-22T04:39:44.958Z,99519.53
2023-10-22T04:42:11.459Z,99525.84
2023-10-22T04:44:38.010Z,99522.16
2023-10-22T04:47:05.111Z,99530.66
2023-10-22T04:49:32.936Z,99536.38
2023-10-22T04:51:59.453Z,99538.16
2023-10-22T04:54:26.031Z,99534.88
2023-10-22T04:56:52.498Z,99542.09
2023-10-22T04:59:18.969Z,99538.91
2023-10-22T05:01:45.610Z,99545.84
2023-10-22T05:04:12.185Z,99542.09
2023-10-22T05:06:40.005Z,99544.22
2023-10-22T05:09:06.500Z,99546.78
2023-10-22T05:11:32.977Z,99554.41
2023-10-22T05:13:59.474Z,99560.56
2023-10-22T05:16:26.188Z,99557.84
2023-10-22T05:18:52.861Z,99556.56
2023-10-22T05:21:19.417Z,99558.56
2023-10-22T05:23:47.270Z,99562.09
2023-10-22T05:26:14.070Z,99551.91
2023-10-22T05:28:40.686Z,99568.69
2023-10-22T05:31:17.228Z,99566.03
2023-10-22T05:33:43.837Z,99566.97
2023-10-22T05:36:16.899Z,99580.00
2023-10-22T05:38:43.933Z,99578.50
2023-10-22T05:41:18.255Z,99589.75
2023-10-22T05:43:44.741Z,99588.81
2023-10-22T05:46:11.178Z,99578.00
2023-10-22T05:48:37.922Z,99585.63
2023-10-22T05:51:04.578Z,99584.63
2023-10-22T05:53:31.010Z,99585.41
2023-10-22T05:55:57.896Z,99601.59
2023-10-22T05:58:26.417Z,99596.59
2023-10-22T06:00:53.066Z,99613.66
2023-10-22T06:03:19.791Z,99603.72
2023-10-22T06:05:46.734Z,99607.19
2023-10-22T06:08:13.194Z,99615.41
2023-10-22T06:10:44.068Z,99615.88
2023-10-22T06:13:10.801Z,99621.25
2023-10-22T06:15:40.274Z,99624.28
2023-10-22T06:18:07.276Z,99625.56
2023-10-22T06:20:34.865Z,99623.94
2023-10-22T06:23:02.039Z,99623.19
2023-10-22T06:25:28.654Z,99630.44
2023-10-22T06:27:55.750Z,99636.75
2023-10-22T06:30:23.796Z,99634.31
2023-10-22T06:32:52.917Z,99636.16
2023-10-22T06:35:19.860Z,99649.09
2023-10-22T06:37:46.309Z,99656.31
2023-10-22T06:40:13.299Z,99643.66
2023-10-22T06:42:39.835Z,99652.16
2023-10-22T06:45:07.542Z,99658.22
2023-10-22T06:47:35.811Z,99653.41
2023-10-22T06:50:04.051Z,99663.81
2023-10-22T06:52:30.509Z,99675.75
2023-10-22T06:54:57.157Z,99674.81
2023-10-22T06:57:23.680Z,99681.66
2023-10-22T06:59:52.287Z,99684.44
2023-10-22T07:02:19.050Z,99693.56
2023-10-22T07:04:45.590Z,99693.81
2023-10-22T07:07:13.350Z,99687.53
2023-10-22T07:09:39.884Z,99685.81
2023-10-22T07:12:07.842Z,99688.50
2023-10-22T07:14:34.309Z,99697.09
2023-10-22T07:17:00.755Z,99700.19
2023-10-22T07:19:27.313Z,99690.84
2023-10-22T07:21:53.771Z,99692.44
2023-10-22T07:24:21.656Z,99695.31
2023-10-22T07:26:48.205Z,99690.16
2023-10-22T07:29:14.865Z,99700.09
2023-10-22T07:31:41.354Z,99697.47
2023-10-22T07:34:07.898Z,99701.78
2023-10-22T07:36:34.331Z,99707.69
2023-10-22T07:39:00.794Z,99702.44
2023-10-22T07:41:28.617Z,99707.53
2023-10-22T07:43:55.150Z,99710.28
2023-10-22T07:46:21.598Z,99710.88
2023-10-22T07:48:48.228Z,99721.22
2023-10-22T07:51:15.999Z,99717.91
2023-10-22T07:53:42.961Z,99723.16
2023-10-22T07:56:10.953Z,99716.78
2023-10-22T07:58:39.660Z,99731.19
2023-10-22T08:01:07.153Z,99727.25
2023-10-22T08:03:34.351Z,99725.69
2023-10-22T08:06:02.579Z,99727.63
2023-10-22T08:08:29.023Z,99728.91
2023-10-22T08:10:56.875Z,99739.91
2023-10-22T08:13:23.329Z,99740.00
2023-10-22T08:15:51.268Z,99751.75
2023-10-22T08:18:18.001Z,99765.00
2023-10-22T08:20:44.600Z,99771.47
2023-10-22T08:23:11.302Z,99768.81
2023-10-22T08:25:37.815Z,99779.09
2023-10-22T08:28:04.624Z,99777.94
2023-10-22T08:30:31.088Z,99772.34
2023-10-22T08:32:59.157Z,99777.94
2023-10-22T08:35:25.677Z,99780.25
2023-10-22T08:37:52.113Z,99778.03
2023-10-22T08:40:18.681Z,99786.50
2023-10-22T08:42:45.862Z,99789.53
2023-10-22T08:45:12.590Z,99791.88
2023-10-22T08:47:39.903Z,99797.56
2023-10-22T08:50:10.754Z,99798.88
2023-10-22T08:52:37.277Z,99800.34
2023-10-22T08:55:04.485Z,99808.97
2023-10-22T08:57:32.013Z,99817.22
2023-10-22T08:59:58.541Z,99821.66
2023-10-22T09:02:26.380Z,99818.44
2023-10-22T09:04:52.824Z,99821.66
2023-10-22T09:07:36.850Z,99820.56
2023-10-22T09:10:03.725Z,99817.44
2023-10-22T09:12:30.189Z,99828.47
2023-10-22T09:14:59.451Z,99835.03
2023-10-22T09:17:25.898Z,99834.41
2023-10-22T09:19:52.346Z,99836.75
2023-10-22T09:22:24.220Z,99838.25
2023-10-22T09:24:52.460Z,99833.84
2023-10-22T09:27:24.019Z,99840.94
2023-10-22T09:29:50.926Z,99851.41
2023-10-22T09:32:17.441Z,99837.91
2023-10-22T09:34:44.005Z,99844.63
2023-10-22T09:37:10.460Z,99848.34
2023-10-22T09:39:39.511Z,99853.63
2023-10-22T09:44:37.929Z,99856.00
2023-10-22T09:47:05.934Z,99861.38
2023-10-22T09:49:33.009Z,99871.34
2023-10-22T09:52:00.627Z,99872.09
2023-10-22T09:54:37.027Z,99878.81
2023-10-22T09:57:08.167Z,99876.84
2023-10-22T09:59:35.703Z,99876.06
2023-10-22T10:02:02.588Z,99886.03
2023-10-22T10:04:32.618Z,99885.69
2023-10-22T10:07:02.843Z,99887.41
2023-10-22T10:09:30.582Z,99879.22
2023-10-22T10:11:59.229Z,99886.72
2023-10-22T10:14:40.782Z,99885.56
2023-10-22T10:17:07.232Z,99878.34
2023-10-22T10:19:33.691Z,99878.94
2023-10-22T10:22:00.190Z,99885.47
2023-10-22T10:24:27.790Z,99879.81
2023-10-22T10:27:24.751Z,99885.31
2023-10-22T10:30:17.553Z,99889.66
2023-10-22T10:32:52.611Z,99894.97
2023-10-22T10:35:28.273Z,99898.84
2023-10-22T10:38:23.402Z,99893.94
2023-10-22T10:40:51.554Z,99900.84
2023-10-22T10:43:18.228Z,99911.25
2023-10-22T10:46:22.467Z,99909.28
2023-10-22T10:48:50.422Z,99914.13
2023-10-22T10:51:18.610Z,99922.28
2023-10-22T10:54:13.214Z,99926.28
2023-10-22T10:56:50.284Z,99930.28
2023-10-22T10:59:30.704Z,99931.31
2023-10-22T11:02:08.335Z,99928.63
2023-10-22T11:04:37.610Z,99941.97
2023-10-22T11:07:17.937Z,99943.50
2023-10-22T11:09:51.612Z,99942.13
2023-10-22T11:12:20.447Z,99940.22
2023-10-22T11:14:54.094Z,99949.38
2023-10-22T11:17:20.758Z,99954.41
2023-10-22T11:19:51.235Z,99954.63
2023-10-22T11:22:18.120Z,99952.16
2023-10-22T11:24:46.051Z,99954.59
2023-10-22T11:27:12.819Z,99954.66
2023-10-22T11:29:42.962Z,99958.50
2023-10-22T11:32:12.920Z,99955.66
2023-10-22T11:34:49.646Z,99965.19
2023-10-22T11:37:19.213Z,99967.03
2023-10-22T11:39:45.973Z,99963.94
2023-10-22T11:42:12.674Z,99961.28
2023-10-22T11:44:44.478Z,99964.13
2023-10-22T11:47:25.205Z,99962.06
2023-10-22T11:49:53.256Z,99962.03
2023-10-22T11:52:37.903Z,99963.13
2023-10-22T11:55:05.370Z,99963.78
2023-10-22T11:57:31.914Z,99969.34
2023-10-22T11:59:58.406Z,99970.75
2023-10-22T12:02:24.882Z,99968.16
2023-10-22T12:04:52.723Z,99975.09
2023-10-22T12:07:19.266Z,99986.16
2023-10-22T12:09:45.725Z,99997.72
2023-10-22T12:12:12.195Z,99998.56
2023-10-22T12:14:38.888Z,99995.16
2023-10-22T12:17:05.577Z,99993.88
2023-10-22T12:19:32.122Z,99994.91
2023-10-22T12:21:59.914Z,99990.28
2023-10-22T12:24:27.556Z,100000.94
2023-10-22T12:26:54.221Z,100004.59
2023-10-22T12:29:23.481Z,100005.19
2023-10-22T12:31:50.801Z,100006.63
2023-10-22T12:34:17.420Z,99999.94
2023-10-22T12:36:44.020Z,100006.03
2023-10-22T12:39:11.869Z,100011.31
2023-10-22T12:41:38.680Z,100013.06
2023-10-22T12:44:05.434Z,100018.22
2023-10-22T12:46:32.391Z,100012.78
2023-10-22T12:52:27.366Z,100016.22
2023-10-22T12:54:55.193Z,100015.78
2023-10-22T12:57:21.694Z,100022.25
2023-10-22T12:59:48.251Z,100027.75
2023-10-22T13:02:14.688Z,100029.69
2023-10-22T13:04:41.392Z,100027.97
2023-10-22T13:07:08.263Z,100033.66
2023-10-22T13:09:34.755Z,100032.19
2023-10-22T13:12:02.571Z,100039.97
2023-10-22T13:14:29.447Z,100038.44
2023-10-22T13:16:55.923Z,100038.44
2023-10-22T13:19:22.455Z,100044.13
2023-10-22T13:21:49.053Z,100039.53
2023-10-22T13:24:15.782Z,100053.38
2023-10-22T13:26:42.314Z,100044.53
2023-10-22T13:29:10.219Z,100051.31
2023-10-22T13:31:37.408Z,100054.75
2023-10-22T13:34:04.316Z,100056.69
2023-10-22T13:36:31.210Z,100053.28
2023-10-22T13:38:57.791Z,100061.34
2023-10-22T13:41:24.261Z,100065.03
2023-10-22T13:43:50.951Z,100062.59
2023-10-22T13:46:18.872Z,100071.41
2023-10-22T13:48:45.459Z,100060.91
2023-10-22T13:51:12.020Z,100070.34
2023-10-22T13:53:38.480Z,100070.03
2023-10-22T13:56:05.131Z,100074.53
2023-10-22T13:58:31.696Z,100080.69
2023-10-22T14:00:58.454Z,100067.53
2023-10-22T14:03:26.501Z,100070.78
2023-10-22T14:05:54.248Z,100077.28
2023-10-22T14:08:23.424Z,100067.84
2023-10-22T14:10:50.664Z,100077.31
2023-10-22T14:13:17.178Z,100080.94
2023-10-22T14:15:43.705Z,100082.34
2023-10-22T14:18:10.512Z,100081.94
2023-10-22T14:20:38.627Z,100082.19
2023-10-22T14:23:05.068Z,100094.50
2023-10-22T14:25:31.612Z,100094.41
2023-10-22T14:27:58.112Z,100092.38
2023-10-22T14:30:26.893Z,100089.94
2023-10-22T14:32:53.384Z,100090.31
2023-10-22T14:35:20.157Z,100097.69
2023-10-22T14:37:48.174Z,100105.72
2023-10-22T14:40:14.679Z,100112.53
2023-10-22T14:42:41.200Z,100115.00
2023-10-22T14:45:08.252Z,100116.19
2023-10-22T14:47:34.879Z,100112.59
2023-10-22T14:50:01.511Z,100113.31
2023-10-22T14:52:28.045Z,100125.19
2023-10-22T14:54:56.001Z,100124.16
2023-10-22T14:57:22.751Z,100118.16
2023-10-22T14:59:49.404Z,100124.19
2023-10-22T15:02:15.855Z,100130.38
2023-10-22T15:04:42.461Z,100133.03
2023-10-22T15:07:09.080Z,100136.19
2023-10-22T15:09:35.572Z,100131.94
2023-10-22T15:12:04.176Z,100141.16
2023-10-22T15:14:30.839Z,100146.91
2023-10-22T15:16:57.330Z,100140.56
2023-10-22T15:19:23.843Z,100152.25
2023-10-22T15:21:50.338Z,100149.72
2023-10-22T15:24:16.883Z,100150.66
2023-10-22T15:26:43.503Z,100162.53
2023-10-22T15:29:11.375Z,100158.56
2023-10-22T15:31:37.938Z,100157.28
2023-10-22T15:34:04.855Z,100159.34
2023-10-22T15:36:31.409Z,100152.34
2023-10-22T15:38:58.107Z,100157.53
2023-10-22T15:41:24.773Z,100153.25
2023-10-22T15:43:51.262Z,100158.50
2023-10-22T15:46:22.341Z,100158.16
2023-10-22T15:48:49.780Z,100153.56
2023-10-22T15:51:17.018Z,100160.97
2023-10-22T15:53:43.923Z,100153.19
2023-10-22T15:56:10.425Z,100154.53
2023-10-22T15:58:37.000Z,100156.53
2023-10-22T16:01:03.582Z,100170.00
2023-10-22T16:03:31.654Z,100171.56
2023-10-22T16:06:00.800Z,100174.53
2023-10-22T16:08:27.362Z,100178.81
2023-10-22T16:10:53.897Z,100170.28
2023-10-22T16:13:20.445Z,100174.13
2023-10-22T16:15:46.986Z,100175.44
2023-10-22T16:18:13.705Z,100178.53
2023-10-22T16:20:41.527Z,100181.63
2023-10-22T16:23:07.967Z,100190.19
2023-10-22T16:25:34.513Z,100180.88
2023-10-22T16:28:00.958Z,100190.44
2023-10-22T16:30:27.761Z,100194.78
2023-10-22T16:32:54.449Z,100197.31
2023-10-22T16:35:20.960Z,100198.78
2023-10-22T16:37:48.797Z,100205.50
2023-10-22T16:40:15.357Z,100210.19
2023-10-22T16:42:41.949Z,100204.22
2023-10-22T16:45:09.957Z,100221.78
2023-10-22T16:47:36.546Z,100212.66
2023-10-22T16:50:03.274Z,100219.13
2023-10-22T16:52:29.832Z,100217.66
2023-10-22T16:54:57.845Z,100223.56
2023-10-22T16:57:24.498Z,100220.53
2023-10-22T16:59:51.075Z,100229.16
2023-10-22T17:02:17.666Z,100229.31
2023-10-22T17:04:44.325Z,100229.69
2023-10-22T17:07:10.775Z,100237.69
2023-10-22T17:09:37.412Z,100235.06
2023-10-22T17:12:06.024Z,100244.00
2023-10-22T17:14:48.596Z,100245.00
2023-10-22T17:17:18.446Z,100241.59
2023-10-22T17:19:45.067Z,100250.84
2023-10-22T17:22:11.760Z,100252.31
2023-10-22T17:24:38.258Z,100253.16
2023-10-22T17:27:06.182Z,100248.63
2023-10-22T17:29:32.673Z,100246.91
2023-10-22T17:31:59.133Z,100257.34
2023-10-22T17:34:25.607Z,100258.75
2023-10-22T17:36:52.214Z,100265.44
2023-10-22T17:39:18.737Z,100269.38
2023-10-22T17:41:45.233Z,100268.38
2023-10-22T17:44:13.035Z,100278.38
2023-10-22T17:46:39.576Z,100290.16
2023-10-22T17:49:06.118Z,100285.59
2023-10-22T17:51:32.640Z,100293.38
2023-10-22T17:53:59.153Z,100302.16
2023-10-22T17:56:25.608Z,100295.72
2023-10-22T17:58:52.096Z,100308.72
2023-10-22T18:01:19.965Z,100316.72
2023-10-22T18:03:46.569Z,100321.75
2023-10-22T18:06:13.262Z,100330.63
2023-10-22T18:08:39.978Z,100336.03
2023-10-22T18:11:06.533Z,100332.88
2023-10-22T18:13:33.065Z,100337.06
2023-10-22T18:15:59.790Z,100342.72
2023-10-22T18:18:28.111Z,100348.03
2023-10-22T18:20:54.856Z,100349.75
2023-10-22T18:23:21.958Z,100348.16
2023-10-22T18:25:58.711Z,100341.34
2023-10-22T18:28:25.231Z,100343.88
2023-10-22T18:30:51.776Z,100342.47
2023-10-22T18:33:18.415Z,100339.66
2023-10-22T18:35:46.486Z,100337.03
2023-10-22T18:38:13.066Z,100341.97
2023-10-22T18:40:39.514Z,100337.44
2023-10-22T18:43:06.245Z,100339.91
2023-10-22T18:45:39.278Z,100348.03
2023-10-22T18:48:06.289Z,100349.78
2023-10-22T18:50:33.210Z,100357.50
2023-10-22T18:53:01.004Z,100353.22
2023-10-22T18:55:27.546Z,100359.44
2023-10-22T18:57:54.109Z,100357.13
2023-10-22T19:00:22.862Z,100362.56
2023-10-22T19:02:49.458Z,100372.50
2023-10-22T19:05:16.194Z,100368.34
2023-10-22T19:07:42.683Z,100378.69
2023-10-22T19:10:10.851Z,100380.34
2023-10-22T19:12:37.422Z,100381.63
2023-10-22T19:15:05.010Z,100379.28
2023-10-22T19:17:31.772Z,100371.53
2023-10-22T19:19:58.391Z,100370.56
2023-10-22T19:22:24.844Z,100361.13
2023-10-22T19:24:51.526Z,100370.56
2023-10-22T19:27:19.455Z,100372.97
2023-10-22T19:29:45.974Z,100374.47
2023-10-22T19:32:12.544Z,100371.56
2023-10-22T19:34:39.194Z,100389.22
2023-10-22T19:37:05.807Z,100383.97
2023-10-22T19:39:32.505Z,100393.47
2023-10-22T19:41:59.007Z,100387.75
2023-10-22T19:44:26.938Z,100397.91
2023-10-22T19:46:53.493Z,100407.09
2023-10-22T19:49:20.020Z,100400.84
2023-10-22T19:51:46.655Z,100409.06
2023-10-22T19:54:13.223Z,100403.81
2023-10-22T19:56:39.729Z,100419.38
2023-10-22T19:59:06.342Z,100411.69
2023-10-22T20:01:34.379Z,100412.84
2023-10-22T20:04:00.965Z,100414.16
2023-10-22T20:06:27.609Z,100415.63
2023-10-22T20:08:54.834Z,100420.38
2023-10-22T20:11:21.368Z,100427.28
2023-10-22T20:13:47.849Z,100420.06
2023-10-22T20:16:19.440Z,100424.81
2023-10-22T20:18:47.507Z,100427.75
2023-10-22T20:21:15.165Z,100425.44
2023-10-22T20:23:41.861Z,100427.09
2023-10-22T20:26:08.364Z,100424.31
2023-10-22T20:28:34.917Z,100427.94
2023-10-22T20:31:01.432Z,100424.34
2023-10-22T20:33:27.905Z,100427.59
2023-10-22T20:35:55.853Z,100440.41
2023-10-22T20:38:22.312Z,100433.00
2023-10-22T20:40:56.006Z,100430.38
2023-10-22T20:43:24.006Z,100440.72
2023-10-22T20:45:50.935Z,100433.75
2023-10-22T20:48:17.547Z,100442.09
2023-10-22T20:50:44.589Z,100441.75
2023-10-22T20:53:12.576Z,100445.25
2023-10-22T20:55:39.228Z,100437.53
2023-10-22T20:58:05.932Z,100445.75
2023-10-22T21:00:32.463Z,100443.91
2023-10-22T21:02:59.075Z,100445.97
2023-10-22T21:05:26.029Z,100451.41
2023-10-22T21:07:52.689Z,100454.88
2023-10-22T21:10:20.507Z,100455.00
2023-10-22T21:12:47.081Z,100460.84
2023-10-22T21:15:13.775Z,100461.66
2023-10-22T21:17:40.293Z,100462.44
2023-10-22T21:20:07.845Z,100461.66
2023-10-22T21:22:34.314Z,100466.56
2023-10-22T21:25:00.790Z,100468.59
2023-10-22T21:27:28.924Z,100473.19
2023-10-22T21:29:55.592Z,100465.81
2023-10-22T21:32:22.049Z,100468.97
2023-10-22T21:34:48.699Z,100469.25
2023-10-22T21:37:15.198Z,100472.06
2023-10-22T21:39:41.723Z,100474.84
2023-10-22T21:42:08.474Z,100473.66
2023-10-22T21:44:36.648Z,100470.31
2023-10-22T21:47:03.491Z,100480.72
2023-10-22T21:49:30.057Z,100468.91
2023-10-22T21:51:56.565Z,100472.69
2023-10-22T21:54:23.091Z,100472.75
2023-10-22T21:56:49.578Z,100472.06
2023-10-22T21:59:16.061Z,100479.38
2023-10-22T22:01:44.005Z,100478.06
2023-10-22T22:04:10.618Z,100477.94
2023-10-22T22:06:37.173Z,100476.00
2023-10-22T22:09:03.778Z,100474.16
2023-10-22T22:11:30.376Z,100477.00
2023-10-22T22:13:56.842Z,100476.19
2023-10-22T22:16:23.358Z,100475.72
2023-10-22T22:18:51.319Z,100477.25
2023-10-22T22:21:17.796Z,100482.53
2023-10-22T22:23:44.306Z,100482.03
2023-10-22T22:26:10.838Z,100487.16
2023-10-22T22:28:37.302Z,100482.63
2023-10-22T22:31:03.965Z,100491.59
2023-10-22T22:33:30.703Z,100490.72
2023-10-22T22:35:58.510Z,100490.09
2023-10-22T22:38:24.992Z,100488.75
2023-10-22T22:40:51.472Z,100491.19
2023-10-22T22:43:17.988Z,100500.56
2023-10-22T22:45:44.559Z,100509.59
2023-10-22T22:48:11.325Z,100507.41
2023-10-22T22:50:37.816Z,100509.50
2023-10-22T22:53:05.671Z,100506.38
2023-10-22T22:55:32.849Z,100509.38
2023-10-22T22:57:59.316Z,100505.22
2023-10-22T23:00:27.740Z,100516.38
2023-10-22T23:02:54.272Z,100508.56
2023-10-22T23:05:20.935Z,100511.09
2023-10-22T23:07:47.680Z,100513.00
2023-10-22T23:10:15.580Z,100516.84
2023-10-22T23:12:42.106Z,100512.25
2023-10-22T23:15:09.635Z,100517.72
2023-10-22T23:17:36.396Z,100513.81
2023-10-22T23:20:03.171Z,100507.00
2023-10-22T23:22:29.679Z,100504.53
2023-10-22T23:24:56.228Z,100510.69
2023-10-22T23:27:24.083Z,100501.88
2023-10-22T23:29:50.622Z,100512.28
2023-10-22T23:32:17.290Z,100509.31
2023-10-22T23:34:43.828Z,100510.28
2023-10-22T23:37:10.339Z,100508.13
2023-10-22T23:39:37.013Z,100511.25
2023-10-22T23:42:03.717Z,100519.59
2023-10-22T23:44:31.568Z,100521.94
2023-10-22T23:46:58.262Z,100520.72
2023-10-22T23:49:24.795Z,100514.88
2023-10-22T23:51:51.323Z,100506.28
2023-10-22T23:54:17.882Z,100515.88
2023-10-22T23:56:44.427Z,100519.16
2023-10-22T23:59:10.928Z,100523.19
